sensor_id;sensor_type;location;lat;lon;timestamp;temperature;humidity
50955;DHT22;36966;48.064;-0.792;2023-12-28T00:01:14;16.50;60.10
50955;DHT22;36966;48.064;-0.792;2023-12-28T00:03:33;16.50;60.10
50955;DHT22;36966;48.064;-0.792;2023-12-28T00:05:53;16.50;60.10
50955;DHT22;36966;48.064;-0.792;2023-12-28T00:08:12;16.50;60.20
50955;DHT22;36966;48.064;-0.792;2023-12-28T00:10:31;16.40;60.20
50955;DHT22;36966;48.064;-0.792;2023-12-28T00:12:50;16.50;60.10
50955;DHT22;36966;48.064;-0.792;2023-12-28T00:15:10;16.50;60.10
50955;DHT22;36966;48.064;-0.792;2023-12-28T00:17:29;16.40;60.20
50955;DHT22;36966;48.064;-0.792;2023-12-28T00:19:48;16.40;60.30
50955;DHT22;36966;48.064;-0.792;2023-12-28T00:22:07;16.40;60.20
50955;DHT22;36966;48.064;-0.792;2023-12-28T00:24:26;16.50;60.20
50955;DHT22;36966;48.064;-0.792;2023-12-28T00:26:46;16.50;60.20
50955;DHT22;36966;48.064;-0.792;2023-12-28T00:29:05;16.40;60.20
50955;DHT22;36966;48.064;-0.792;2023-12-28T00:31:24;16.50;60.20
50955;DHT22;36966;48.064;-0.792;2023-12-28T00:33:44;16.40;60.20
50955;DHT22;36966;48.064;-0.792;2023-12-28T00:36:03;16.50;60.20
50955;DHT22;36966;48.064;-0.792;2023-12-28T00:38:22;16.40;60.20
50955;DHT22;36966;48.064;-0.792;2023-12-28T00:40:41;16.40;60.20
50955;DHT22;36966;48.064;-0.792;2023-12-28T00:43:00;16.40;60.30
50955;DHT22;36966;48.064;-0.792;2023-12-28T00:45:19;16.50;60.30
50955;DHT22;36966;48.064;-0.792;2023-12-28T00:47:39;16.40;60.30
50955;DHT22;36966;48.064;-0.792;2023-12-28T00:49:58;16.40;60.30
50955;DHT22;36966;48.064;-0.792;2023-12-28T00:52:17;16.40;60.30
50955;DHT22;36966;48.064;-0.792;2023-12-28T00:54:37;16.40;60.20
50955;DHT22;36966;48.064;-0.792;2023-12-28T00:56:59;16.40;60.40
50955;DHT22;36966;48.064;-0.792;2023-12-28T00:59:18;16.40;60.50
50955;DHT22;36966;48.064;-0.792;2023-12-28T01:01:38;16.40;60.50
50955;DHT22;36966;48.064;-0.792;2023-12-28T01:03:57;16.40;60.40
50955;DHT22;36966;48.064;-0.792;2023-12-28T01:06:16;16.40;60.30
50955;DHT22;36966;48.064;-0.792;2023-12-28T01:08:35;16.40;60.40
50955;DHT22;36966;48.064;-0.792;2023-12-28T01:10:55;16.50;60.30
50955;DHT22;36966;48.064;-0.792;2023-12-28T01:13:14;16.40;60.20
50955;DHT22;36966;48.064;-0.792;2023-12-28T01:15:33;16.50;60.30
50955;DHT22;36966;48.064;-0.792;2023-12-28T01:17:52;16.40;60.30
50955;DHT22;36966;48.064;-0.792;2023-12-28T01:20:12;16.40;60.40
50955;DHT22;36966;48.064;-0.792;2023-12-28T01:22:31;16.40;60.30
50955;DHT22;36966;48.064;-0.792;2023-12-28T01:24:50;16.40;60.30
50955;DHT22;36966;48.064;-0.792;2023-12-28T01:27:09;16.40;60.30
50955;DHT22;36966;48.064;-0.792;2023-12-28T01:29:29;16.40;60.20
50955;DHT22;36966;48.064;-0.792;2023-12-28T01:31:48;16.40;60.20
50955;DHT22;36966;48.064;-0.792;2023-12-28T01:34:07;16.40;60.20
50955;DHT22;36966;48.064;-0.792;2023-12-28T01:36:28;16.40;60.20
50955;DHT22;36966;48.064;-0.792;2023-12-28T01:38:48;16.40;60.20
50955;DHT22;36966;48.064;-0.792;2023-12-28T01:41:07;16.40;60.20
50955;DHT22;36966;48.064;-0.792;2023-12-28T01:43:27;16.40;60.20
50955;DHT22;36966;48.064;-0.792;2023-12-28T01:45:46;16.50;60.20
50955;DHT22;36966;48.064;-0.792;2023-12-28T01:48:05;16.40;60.10
50955;DHT22;36966;48.064;-0.792;2023-12-28T01:50:25;16.40;60.20
50955;DHT22;36966;48.064;-0.792;2023-12-28T01:52:45;16.40;60.30
50955;DHT22;36966;48.064;-0.792;2023-12-28T01:55:05;16.40;60.30
50955;DHT22;36966;48.064;-0.792;2023-12-28T01:57:25;16.40;60.30
50955;DHT22;36966;48.064;-0.792;2023-12-28T01:59:45;16.40;60.20
50955;DHT22;36966;48.064;-0.792;2023-12-28T02:02:04;16.40;60.20
50955;DHT22;36966;48.064;-0.792;2023-12-28T02:04:24;16.40;60.20
50955;DHT22;36966;48.064;-0.792;2023-12-28T02:06:47;16.40;60.20
50955;DHT22;36966;48.064;-0.792;2023-12-28T02:09:06;16.40;60.20
50955;DHT22;36966;48.064;-0.792;2023-12-28T02:11:26;16.40;60.10
50955;DHT22;36966;48.064;-0.792;2023-12-28T02:13:48;16.40;60.20
50955;DHT22;36966;48.064;-0.792;2023-12-28T02:16:09;16.40;60.20
50955;DHT22;36966;48.064;-0.792;2023-12-28T02:18:39;16.40;60.20
50955;DHT22;36966;48.064;-0.792;2023-12-28T02:21:01;16.40;60.20
50955;DHT22;36966;48.064;-0.792;2023-12-28T02:23:21;16.40;60.20
50955;DHT22;36966;48.064;-0.792;2023-12-28T02:25:41;16.40;60.20
50955;DHT22;36966;48.064;-0.792;2023-12-28T02:28:00;16.40;60.20
50955;DHT22;36966;48.064;-0.792;2023-12-28T02:30:20;16.40;60.30
50955;DHT22;36966;48.064;-0.792;2023-12-28T02:32:47;16.40;60.20
50955;DHT22;36966;48.064;-0.792;2023-12-28T02:35:14;16.40;60.20
50955;DHT22;36966;48.064;-0.792;2023-12-28T02:37:35;16.40;60.20
50955;DHT22;36966;48.064;-0.792;2023-12-28T02:39:54;16.40;60.30
50955;DHT22;36966;48.064;-0.792;2023-12-28T02:42:14;16.40;60.40
50955;DHT22;36966;48.064;-0.792;2023-12-28T02:44:33;16.40;60.30
50955;DHT22;36966;48.064;-0.792;2023-12-28T02:46:52;16.40;60.20
50955;DHT22;36966;48.064;-0.792;2023-12-28T02:49:12;16.40;60.20
50955;DHT22;36966;48.064;-0.792;2023-12-28T02:51:31;16.40;60.30
50955;DHT22;36966;48.064;-0.792;2023-12-28T02:53:50;16.40;60.30
50955;DHT22;36966;48.064;-0.792;2023-12-28T02:56:13;16.40;60.20
50955;DHT22;36966;48.064;-0.792;2023-12-28T02:58:33;16.40;60.20
50955;DHT22;36966;48.064;-0.792;2023-12-28T03:00:52;16.40;60.20
50955;DHT22;36966;48.064;-0.792;2023-12-28T03:03:11;16.40;60.30
50955;DHT22;36966;48.064;-0.792;2023-12-28T03:05:30;16.40;60.20
50955;DHT22;36966;48.064;-0.792;2023-12-28T03:07:49;16.40;60.20
50955;DHT22;36966;48.064;-0.792;2023-12-28T03:10:09;16.40;60.20
50955;DHT22;36966;48.064;-0.792;2023-12-28T03:12:30;16.40;60.20
50955;DHT22;36966;48.064;-0.792;2023-12-28T03:14:49;16.40;60.20
50955;DHT22;36966;48.064;-0.792;2023-12-28T03:17:08;16.40;60.30
50955;DHT22;36966;48.064;-0.792;2023-12-28T03:19:28;16.40;60.40
50955;DHT22;36966;48.064;-0.792;2023-12-28T03:21:48;16.40;60.40
50955;DHT22;36966;48.064;-0.792;2023-12-28T03:24:07;16.40;60.40
50955;DHT22;36966;48.064;-0.792;2023-12-28T03:26:26;16.40;60.30
50955;DHT22;36966;48.064;-0.792;2023-12-28T03:28:46;16.40;60.30
50955;DHT22;36966;48.064;-0.792;2023-12-28T03:31:05;16.40;60.30
50955;DHT22;36966;48.064;-0.792;2023-12-28T03:33:24;16.40;60.30
50955;DHT22;36966;48.064;-0.792;2023-12-28T03:35:43;16.30;60.30
50955;DHT22;36966;48.064;-0.792;2023-12-28T03:38:03;16.30;60.30
50955;DHT22;36966;48.064;-0.792;2023-12-28T03:40:22;16.40;60.30
50955;DHT22;36966;48.064;-0.792;2023-12-28T03:42:42;16.40;60.30
50955;DHT22;36966;48.064;-0.792;2023-12-28T03:45:03;16.40;60.20
50955;DHT22;36966;48.064;-0.792;2023-12-28T03:47:22;16.40;60.30
50955;DHT22;36966;48.064;-0.792;2023-12-28T03:49:42;16.40;60.40
50955;DHT22;36966;48.064;-0.792;2023-12-28T03:52:02;16.40;60.30
50955;DHT22;36966;48.064;-0.792;2023-12-28T03:54:21;16.40;60.30
50955;DHT22;36966;48.064;-0.792;2023-12-28T03:56:40;16.40;60.30
50955;DHT22;36966;48.064;-0.792;2023-12-28T03:59:00;16.40;60.30
50955;DHT22;36966;48.064;-0.792;2023-12-28T04:01:20;16.40;60.20
50955;DHT22;36966;48.064;-0.792;2023-12-28T04:03:39;16.40;60.30
50955;DHT22;36966;48.064;-0.792;2023-12-28T04:05:58;16.40;60.20
50955;DHT22;36966;48.064;-0.792;2023-12-28T04:08:18;16.40;60.30
50955;DHT22;36966;48.064;-0.792;2023-12-28T04:10:37;16.40;60.30
50955;DHT22;36966;48.064;-0.792;2023-12-28T04:12:57;16.40;60.20
50955;DHT22;36966;48.064;-0.792;2023-12-28T04:15:16;16.40;60.20
50955;DHT22;36966;48.064;-0.792;2023-12-28T04:17:35;16.40;60.20
50955;DHT22;36966;48.064;-0.792;2023-12-28T04:19:54;16.40;60.20
50955;DHT22;36966;48.064;-0.792;2023-12-28T04:22:14;16.40;60.30
50955;DHT22;36966;48.064;-0.792;2023-12-28T04:24:39;16.40;60.30
50955;DHT22;36966;48.064;-0.792;2023-12-28T04:27:08;16.40;60.20
50955;DHT22;36966;48.064;-0.792;2023-12-28T04:29:27;16.40;60.20
50955;DHT22;36966;48.064;-0.792;2023-12-28T04:31:47;16.40;60.20
50955;DHT22;36966;48.064;-0.792;2023-12-28T04:34:06;16.40;60.30
50955;DHT22;36966;48.064;-0.792;2023-12-28T04:36:26;16.40;60.20
50955;DHT22;36966;48.064;-0.792;2023-12-28T04:38:48;16.30;60.20
50955;DHT22;36966;48.064;-0.792;2023-12-28T04:41:09;16.40;60.20
50955;DHT22;36966;48.064;-0.792;2023-12-28T04:43:28;16.40;60.20
50955;DHT22;36966;48.064;-0.792;2023-12-28T04:45:47;16.40;60.20
50955;DHT22;36966;48.064;-0.792;2023-12-28T04:48:06;16.30;60.20
50955;DHT22;36966;48.064;-0.792;2023-12-28T04:50:25;16.40;60.20
50955;DHT22;36966;48.064;-0.792;2023-12-28T04:52:45;16.40;60.20
50955;DHT22;36966;48.064;-0.792;2023-12-28T04:55:04;16.30;60.20
50955;DHT22;36966;48.064;-0.792;2023-12-28T04:57:24;16.40;60.20
50955;DHT22;36966;48.064;-0.792;2023-12-28T04:59:44;16.40;60.20
50955;DHT22;36966;48.064;-0.792;2023-12-28T05:02:04;16.30;60.20
50955;DHT22;36966;48.064;-0.792;2023-12-28T05:04:26;16.30;60.30
50955;DHT22;36966;48.064;-0.792;2023-12-28T05:06:45;16.30;60.20
50955;DHT22;36966;48.064;-0.792;2023-12-28T05:09:04;16.30;60.30
50955;DHT22;36966;48.064;-0.792;2023-12-28T05:11:24;16.30;60.30
50955;DHT22;36966;48.064;-0.792;2023-12-28T05:13:43;16.30;60.30
50955;DHT22;36966;48.064;-0.792;2023-12-28T05:16:03;16.30;60.40
50955;DHT22;36966;48.064;-0.792;2023-12-28T05:18:33;16.30;61.40
50955;DHT22;36966;48.064;-0.792;2023-12-28T05:20:52;16.40;62.80
50955;DHT22;36966;48.064;-0.792;2023-12-28T05:23:11;16.40;62.40
50955;DHT22;36966;48.064;-0.792;2023-12-28T05:25:30;16.40;61.90
50955;DHT22;36966;48.064;-0.792;2023-12-28T05:27:50;16.40;61.50
50955;DHT22;36966;48.064;-0.792;2023-12-28T05:30:09;16.40;61.20
50955;DHT22;36966;48.064;-0.792;2023-12-28T05:32:30;16.40;60.80
50955;DHT22;36966;48.064;-0.792;2023-12-28T05:34:49;16.40;60.70
50955;DHT22;36966;48.064;-0.792;2023-12-28T05:37:09;16.40;60.60
50955;DHT22;36966;48.064;-0.792;2023-12-28T05:39:28;16.30;60.50
50955;DHT22;36966;48.064;-0.792;2023-12-28T05:41:47;16.30;60.40
50955;DHT22;36966;48.064;-0.792;2023-12-28T05:44:09;16.40;60.30
50955;DHT22;36966;48.064;-0.792;2023-12-28T05:46:29;16.40;60.30
50955;DHT22;36966;48.064;-0.792;2023-12-28T05:48:48;16.40;60.30
50955;DHT22;36966;48.064;-0.792;2023-12-28T05:51:07;16.40;60.20
50955;DHT22;36966;48.064;-0.792;2023-12-28T05:53:27;16.40;60.20
50955;DHT22;36966;48.064;-0.792;2023-12-28T05:55:48;16.40;60.20
50955;DHT22;36966;48.064;-0.792;2023-12-28T05:58:07;16.40;60.20
50955;DHT22;36966;48.064;-0.792;2023-12-28T06:00:29;16.30;60.10
50955;DHT22;36966;48.064;-0.792;2023-12-28T06:02:48;16.40;60.10
50955;DHT22;36966;48.064;-0.792;2023-12-28T06:05:10;16.30;60.10
50955;DHT22;36966;48.064;-0.792;2023-12-28T06:07:29;16.30;60.10
50955;DHT22;36966;48.064;-0.792;2023-12-28T06:09:48;16.30;60.10
50955;DHT22;36966;48.064;-0.792;2023-12-28T06:12:08;16.30;60.10
50955;DHT22;36966;48.064;-0.792;2023-12-28T06:14:30;16.40;60.10
50955;DHT22;36966;48.064;-0.792;2023-12-28T06:16:49;16.30;60.00
50955;DHT22;36966;48.064;-0.792;2023-12-28T06:19:09;16.40;60.00
50955;DHT22;36966;48.064;-0.792;2023-12-28T06:21:29;16.30;60.00
50955;DHT22;36966;48.064;-0.792;2023-12-28T06:23:49;16.30;60.10
50955;DHT22;36966;48.064;-0.792;2023-12-28T06:26:08;16.30;60.00
50955;DHT22;36966;48.064;-0.792;2023-12-28T06:28:27;16.40;60.00
50955;DHT22;36966;48.064;-0.792;2023-12-28T06:30:47;16.30;60.00
50955;DHT22;36966;48.064;-0.792;2023-12-28T06:33:06;16.30;60.00
50955;DHT22;36966;48.064;-0.792;2023-12-28T06:35:26;16.30;60.00
50955;DHT22;36966;48.064;-0.792;2023-12-28T06:37:45;16.30;60.00
50955;DHT22;36966;48.064;-0.792;2023-12-28T06:40:04;16.30;60.00
50955;DHT22;36966;48.064;-0.792;2023-12-28T06:42:24;16.30;60.00
50955;DHT22;36966;48.064;-0.792;2023-12-28T06:44:43;16.30;60.00
50955;DHT22;36966;48.064;-0.792;2023-12-28T06:47:03;16.30;59.90
50955;DHT22;36966;48.064;-0.792;2023-12-28T06:49:22;16.30;59.90
50955;DHT22;36966;48.064;-0.792;2023-12-28T06:51:41;16.30;60.00
50955;DHT22;36966;48.064;-0.792;2023-12-28T06:54:03;16.30;59.90
50955;DHT22;36966;48.064;-0.792;2023-12-28T06:56:22;16.30;59.90
50955;DHT22;36966;48.064;-0.792;2023-12-28T06:58:42;16.30;59.90
50955;DHT22;36966;48.064;-0.792;2023-12-28T07:01:05;16.30;59.90
50955;DHT22;36966;48.064;-0.792;2023-12-28T07:03:24;16.30;59.90
50955;DHT22;36966;48.064;-0.792;2023-12-28T07:05:44;16.30;59.90
50955;DHT22;36966;48.064;-0.792;2023-12-28T07:08:03;16.30;59.90
50955;DHT22;36966;48.064;-0.792;2023-12-28T07:10:23;16.30;59.90
50955;DHT22;36966;48.064;-0.792;2023-12-28T07:12:44;16.30;59.90
50955;DHT22;36966;48.064;-0.792;2023-12-28T07:15:04;16.30;59.90
50955;DHT22;36966;48.064;-0.792;2023-12-28T07:17:23;16.30;59.90
50955;DHT22;36966;48.064;-0.792;2023-12-28T07:19:43;16.30;59.90
50955;DHT22;36966;48.064;-0.792;2023-12-28T07:22:03;16.20;59.90
50955;DHT22;36966;48.064;-0.792;2023-12-28T07:24:23;16.30;59.90
50955;DHT22;36966;48.064;-0.792;2023-12-28T07:26:42;16.30;59.90
50955;DHT22;36966;48.064;-0.792;2023-12-28T07:29:01;16.20;59.90
50955;DHT22;36966;48.064;-0.792;2023-12-28T07:31:24;16.30;59.90
50955;DHT22;36966;48.064;-0.792;2023-12-28T07:33:44;16.20;59.90
50955;DHT22;36966;48.064;-0.792;2023-12-28T07:36:03;16.20;59.90
50955;DHT22;36966;48.064;-0.792;2023-12-28T07:38:24;16.30;59.80
50955;DHT22;36966;48.064;-0.792;2023-12-28T07:40:44;16.20;59.80
50955;DHT22;36966;48.064;-0.792;2023-12-28T07:43:03;16.20;59.80
50955;DHT22;36966;48.064;-0.792;2023-12-28T07:45:22;16.30;59.80
50955;DHT22;36966;48.064;-0.792;2023-12-28T07:47:43;16.20;59.80
50955;DHT22;36966;48.064;-0.792;2023-12-28T07:50:05;16.20;59.80
50955;DHT22;36966;48.064;-0.792;2023-12-28T07:52:25;16.20;59.80
50955;DHT22;36966;48.064;-0.792;2023-12-28T07:54:44;16.30;59.80
50955;DHT22;36966;48.064;-0.792;2023-12-28T07:59:50;16.30;59.80
50955;DHT22;36966;48.064;-0.792;2023-12-28T08:02:10;16.20;59.80
50955;DHT22;36966;48.064;-0.792;2023-12-28T08:04:30;16.20;59.70
50955;DHT22;36966;48.064;-0.792;2023-12-28T08:06:50;16.20;59.80
50955;DHT22;36966;48.064;-0.792;2023-12-28T08:09:09;16.20;59.70
50955;DHT22;36966;48.064;-0.792;2023-12-28T08:11:29;16.30;59.70
50955;DHT22;36966;48.064;-0.792;2023-12-28T08:13:48;16.20;59.70
50955;DHT22;36966;48.064;-0.792;2023-12-28T08:16:07;16.20;59.70
50955;DHT22;36966;48.064;-0.792;2023-12-28T08:18:26;16.20;59.70
50955;DHT22;36966;48.064;-0.792;2023-12-28T08:20:46;16.20;59.70
50955;DHT22;36966;48.064;-0.792;2023-12-28T08:23:05;16.30;59.70
50955;DHT22;36966;48.064;-0.792;2023-12-28T08:25:24;16.20;59.70
50955;DHT22;36966;48.064;-0.792;2023-12-28T08:27:44;16.20;59.80
50955;DHT22;36966;48.064;-0.792;2023-12-28T08:30:04;16.20;59.70
50955;DHT22;36966;48.064;-0.792;2023-12-28T08:32:23;16.20;59.70
50955;DHT22;36966;48.064;-0.792;2023-12-28T08:34:43;16.20;59.70
50955;DHT22;36966;48.064;-0.792;2023-12-28T08:37:03;16.20;59.80
50955;DHT22;36966;48.064;-0.792;2023-12-28T08:39:22;16.20;59.80
50955;DHT22;36966;48.064;-0.792;2023-12-28T08:41:41;16.20;59.70
50955;DHT22;36966;48.064;-0.792;2023-12-28T08:44:01;16.20;59.70
50955;DHT22;36966;48.064;-0.792;2023-12-28T08:46:21;16.20;59.70
50955;DHT22;36966;48.064;-0.792;2023-12-28T08:48:40;16.20;59.70
50955;DHT22;36966;48.064;-0.792;2023-12-28T08:51:00;16.20;59.70
50955;DHT22;36966;48.064;-0.792;2023-12-28T08:53:19;16.20;59.70
50955;DHT22;36966;48.064;-0.792;2023-12-28T08:55:38;16.20;59.70
50955;DHT22;36966;48.064;-0.792;2023-12-28T08:57:57;16.30;59.60
50955;DHT22;36966;48.064;-0.792;2023-12-28T09:00:17;16.30;59.60
50955;DHT22;36966;48.064;-0.792;2023-12-28T09:02:36;16.30;59.60
50955;DHT22;36966;48.064;-0.792;2023-12-28T09:04:57;16.30;59.60
50955;DHT22;36966;48.064;-0.792;2023-12-28T09:07:17;16.30;59.60
50955;DHT22;36966;48.064;-0.792;2023-12-28T09:09:38;16.40;59.60
50955;DHT22;36966;48.064;-0.792;2023-12-28T09:11:58;16.40;59.50
50955;DHT22;36966;48.064;-0.792;2023-12-28T09:14:17;16.40;59.50
50955;DHT22;36966;48.064;-0.792;2023-12-28T09:16:37;16.40;59.50
50955;DHT22;36966;48.064;-0.792;2023-12-28T09:18:58;16.50;59.50
50955;DHT22;36966;48.064;-0.792;2023-12-28T09:21:17;16.50;59.50
50955;DHT22;36966;48.064;-0.792;2023-12-28T09:23:36;16.50;59.50
50955;DHT22;36966;48.064;-0.792;2023-12-28T09:25:56;16.50;59.40
50955;DHT22;36966;48.064;-0.792;2023-12-28T09:28:16;16.50;59.40
50955;DHT22;36966;48.064;-0.792;2023-12-28T09:30:35;16.60;59.40
50955;DHT22;36966;48.064;-0.792;2023-12-28T09:32:55;16.60;59.40
50955;DHT22;36966;48.064;-0.792;2023-12-28T09:35:14;16.60;59.50
50955;DHT22;36966;48.064;-0.792;2023-12-28T09:37:33;16.60;59.40
50955;DHT22;36966;48.064;-0.792;2023-12-28T09:39:52;16.70;59.40
50955;DHT22;36966;48.064;-0.792;2023-12-28T09:42:16;16.70;59.40
50955;DHT22;36966;48.064;-0.792;2023-12-28T09:44:36;16.70;59.40
50955;DHT22;36966;48.064;-0.792;2023-12-28T09:46:58;16.70;59.40
50955;DHT22;36966;48.064;-0.792;2023-12-28T09:49:17;16.70;59.40
50955;DHT22;36966;48.064;-0.792;2023-12-28T09:51:36;16.70;59.40
50955;DHT22;36966;48.064;-0.792;2023-12-28T09:53:56;16.70;59.40
50955;DHT22;36966;48.064;-0.792;2023-12-28T09:56:15;16.70;59.50
50955;DHT22;36966;48.064;-0.792;2023-12-28T09:58:35;16.70;59.50
50955;DHT22;36966;48.064;-0.792;2023-12-28T10:00:54;16.80;59.70
50955;DHT22;36966;48.064;-0.792;2023-12-28T10:03:14;16.80;59.70
50955;DHT22;36966;48.064;-0.792;2023-12-28T10:05:34;16.80;59.50
50955;DHT22;36966;48.064;-0.792;2023-12-28T10:07:53;16.80;59.90
50955;DHT22;36966;48.064;-0.792;2023-12-28T10:10:14;16.90;60.10
50955;DHT22;36966;48.064;-0.792;2023-12-28T10:12:33;16.90;60.30
50955;DHT22;36966;48.064;-0.792;2023-12-28T10:14:52;17.00;60.40
50955;DHT22;36966;48.064;-0.792;2023-12-28T10:17:12;16.90;60.40
50955;DHT22;36966;48.064;-0.792;2023-12-28T10:19:34;16.90;60.50
50955;DHT22;36966;48.064;-0.792;2023-12-28T10:21:53;17.00;60.60
50955;DHT22;36966;48.064;-0.792;2023-12-28T10:24:13;17.00;60.70
50955;DHT22;36966;48.064;-0.792;2023-12-28T10:26:32;17.00;60.70
50955;DHT22;36966;48.064;-0.792;2023-12-28T10:28:56;17.10;60.80
50955;DHT22;36966;48.064;-0.792;2023-12-28T10:31:15;17.10;60.70
50955;DHT22;36966;48.064;-0.792;2023-12-28T10:33:35;17.10;60.80
50955;DHT22;36966;48.064;-0.792;2023-12-28T10:35:57;17.10;60.80
50955;DHT22;36966;48.064;-0.792;2023-12-28T10:38:17;17.10;60.80
50955;DHT22;36966;48.064;-0.792;2023-12-28T10:40:36;17.10;60.70
50955;DHT22;36966;48.064;-0.792;2023-12-28T10:43:06;17.20;60.80
50955;DHT22;36966;48.064;-0.792;2023-12-28T10:45:26;17.20;60.80
50955;DHT22;36966;48.064;-0.792;2023-12-28T10:47:53;17.20;60.80
50955;DHT22;36966;48.064;-0.792;2023-12-28T10:50:13;17.30;60.60
50955;DHT22;36966;48.064;-0.792;2023-12-28T10:52:34;17.30;60.70
50955;DHT22;36966;48.064;-0.792;2023-12-28T10:57:27;17.40;60.60
50955;DHT22;36966;48.064;-0.792;2023-12-28T11:02:15;17.50;60.60
50955;DHT22;36966;48.064;-0.792;2023-12-28T11:04:40;17.60;60.50
50955;DHT22;36966;48.064;-0.792;2023-12-28T11:07:01;17.60;60.40
50955;DHT22;36966;48.064;-0.792;2023-12-28T11:09:21;17.70;60.30
50955;DHT22;36966;48.064;-0.792;2023-12-28T11:11:42;17.70;60.20
50955;DHT22;36966;48.064;-0.792;2023-12-28T11:14:02;17.70;60.10
50955;DHT22;36966;48.064;-0.792;2023-12-28T11:16:21;17.70;60.00
50955;DHT22;36966;48.064;-0.792;2023-12-28T11:18:41;17.70;59.80
50955;DHT22;36966;48.064;-0.792;2023-12-28T11:21:00;17.70;59.90
50955;DHT22;36966;48.064;-0.792;2023-12-28T11:23:19;17.70;59.80
50955;DHT22;36966;48.064;-0.792;2023-12-28T11:25:38;17.70;59.90
50955;DHT22;36966;48.064;-0.792;2023-12-28T11:27:57;17.70;59.90
50955;DHT22;36966;48.064;-0.792;2023-12-28T11:30:17;17.80;59.80
50955;DHT22;36966;48.064;-0.792;2023-12-28T11:32:36;17.80;59.70
50955;DHT22;36966;48.064;-0.792;2023-12-28T11:34:56;17.70;59.60
50955;DHT22;36966;48.064;-0.792;2023-12-28T11:37:17;17.70;59.40
50955;DHT22;36966;48.064;-0.792;2023-12-28T11:39:41;17.70;59.50
50955;DHT22;36966;48.064;-0.792;2023-12-28T11:42:03;17.70;59.70
50955;DHT22;36966;48.064;-0.792;2023-12-28T11:44:25;17.70;59.60
50955;DHT22;36966;48.064;-0.792;2023-12-28T11:46:44;17.60;59.70
50955;DHT22;36966;48.064;-0.792;2023-12-28T11:49:07;17.60;59.40
50955;DHT22;36966;48.064;-0.792;2023-12-28T11:51:27;17.60;59.60
50955;DHT22;36966;48.064;-0.792;2023-12-28T11:53:46;17.60;59.50
50955;DHT22;36966;48.064;-0.792;2023-12-28T11:56:06;17.60;59.50
50955;DHT22;36966;48.064;-0.792;2023-12-28T11:58:31;17.60;59.50
50955;DHT22;36966;48.064;-0.792;2023-12-28T12:00:52;17.50;59.60
50955;DHT22;36966;48.064;-0.792;2023-12-28T12:03:11;17.50;59.60
50955;DHT22;36966;48.064;-0.792;2023-12-28T12:05:30;17.50;59.60
50955;DHT22;36966;48.064;-0.792;2023-12-28T12:07:50;17.50;59.60
50955;DHT22;36966;48.064;-0.792;2023-12-28T12:10:14;17.40;59.60
50955;DHT22;36966;48.064;-0.792;2023-12-28T12:12:54;17.50;59.70
50955;DHT22;36966;48.064;-0.792;2023-12-28T12:15:13;17.40;59.70
50955;DHT22;36966;48.064;-0.792;2023-12-28T12:17:33;17.40;59.70
50955;DHT22;36966;48.064;-0.792;2023-12-28T12:19:52;17.40;59.70
50955;DHT22;36966;48.064;-0.792;2023-12-28T12:22:15;17.40;59.70
50955;DHT22;36966;48.064;-0.792;2023-12-28T12:24:34;17.40;59.70
50955;DHT22;36966;48.064;-0.792;2023-12-28T12:26:54;17.40;59.70
50955;DHT22;36966;48.064;-0.792;2023-12-28T12:29:13;17.40;59.70
50955;DHT22;36966;48.064;-0.792;2023-12-28T12:31:36;17.30;59.70
50955;DHT22;36966;48.064;-0.792;2023-12-28T12:33:57;17.40;59.70
50955;DHT22;36966;48.064;-0.792;2023-12-28T12:36:16;17.30;59.70
50955;DHT22;36966;48.064;-0.792;2023-12-28T12:38:36;17.30;59.70
50955;DHT22;36966;48.064;-0.792;2023-12-28T12:40:55;17.30;60.00
50955;DHT22;36966;48.064;-0.792;2023-12-28T12:43:14;17.30;59.90
50955;DHT22;36966;48.064;-0.792;2023-12-28T12:45:34;17.40;59.90
50955;DHT22;36966;48.064;-0.792;2023-12-28T12:47:53;17.40;59.80
50955;DHT22;36966;48.064;-0.792;2023-12-28T12:50:13;17.40;59.70
50955;DHT22;36966;48.064;-0.792;2023-12-28T12:52:32;17.40;59.50
50955;DHT22;36966;48.064;-0.792;2023-12-28T12:54:56;17.40;59.50
50955;DHT22;36966;48.064;-0.792;2023-12-28T12:57:15;17.40;59.50
50955;DHT22;36966;48.064;-0.792;2023-12-28T12:59:35;17.40;59.60
50955;DHT22;36966;48.064;-0.792;2023-12-28T13:01:54;17.40;59.50
50955;DHT22;36966;48.064;-0.792;2023-12-28T13:04:14;17.40;59.50
50955;DHT22;36966;48.064;-0.792;2023-12-28T13:06:34;17.40;59.50
50955;DHT22;36966;48.064;-0.792;2023-12-28T13:08:54;17.40;59.50
50955;DHT22;36966;48.064;-0.792;2023-12-28T13:11:13;17.30;59.40
50955;DHT22;36966;48.064;-0.792;2023-12-28T13:13:35;17.30;59.50
50955;DHT22;36966;48.064;-0.792;2023-12-28T13:15:54;17.30;59.40
50955;DHT22;36966;48.064;-0.792;2023-12-28T13:18:14;17.30;59.40
50955;DHT22;36966;48.064;-0.792;2023-12-28T13:20:33;17.30;59.50
50955;DHT22;36966;48.064;-0.792;2023-12-28T13:22:52;17.30;60.50
50955;DHT22;36966;48.064;-0.792;2023-12-28T13:25:11;17.30;61.80
50955;DHT22;36966;48.064;-0.792;2023-12-28T13:27:30;17.40;61.60
50955;DHT22;36966;48.064;-0.792;2023-12-28T13:29:51;17.40;61.00
50955;DHT22;36966;48.064;-0.792;2023-12-28T13:32:10;17.30;60.70
50955;DHT22;36966;48.064;-0.792;2023-12-28T13:34:29;17.30;60.60
50955;DHT22;36966;48.064;-0.792;2023-12-28T13:36:49;17.30;60.40
50955;DHT22;36966;48.064;-0.792;2023-12-28T13:39:09;17.30;60.30
50955;DHT22;36966;48.064;-0.792;2023-12-28T13:41:30;17.30;60.20
50955;DHT22;36966;48.064;-0.792;2023-12-28T13:43:50;17.30;60.20
50955;DHT22;36966;48.064;-0.792;2023-12-28T13:46:09;17.30;60.20
50955;DHT22;36966;48.064;-0.792;2023-12-28T13:48:29;17.30;60.50
50955;DHT22;36966;48.064;-0.792;2023-12-28T13:50:48;17.30;60.60
50955;DHT22;36966;48.064;-0.792;2023-12-28T13:53:08;17.30;60.30
50955;DHT22;36966;48.064;-0.792;2023-12-28T13:55:27;17.30;60.20
50955;DHT22;36966;48.064;-0.792;2023-12-28T13:57:47;17.20;60.10
50955;DHT22;36966;48.064;-0.792;2023-12-28T14:00:08;17.30;62.70
50955;DHT22;36966;48.064;-0.792;2023-12-28T14:02:28;17.30;61.90
50955;DHT22;36966;48.064;-0.792;2023-12-28T14:04:47;17.30;61.20
50955;DHT22;36966;48.064;-0.792;2023-12-28T14:07:06;17.30;61.30
50955;DHT22;36966;48.064;-0.792;2023-12-28T14:09:25;17.30;61.00
50955;DHT22;36966;48.064;-0.792;2023-12-28T14:11:46;17.30;60.80
50955;DHT22;36966;48.064;-0.792;2023-12-28T14:14:05;17.30;60.60
50955;DHT22;36966;48.064;-0.792;2023-12-28T14:16:24;17.30;60.60
50955;DHT22;36966;48.064;-0.792;2023-12-28T14:18:44;17.20;60.50
50955;DHT22;36966;48.064;-0.792;2023-12-28T14:21:06;17.20;60.40
50955;DHT22;36966;48.064;-0.792;2023-12-28T14:23:26;17.20;60.30
50955;DHT22;36966;48.064;-0.792;2023-12-28T14:25:46;17.20;60.20
50955;DHT22;36966;48.064;-0.792;2023-12-28T14:28:10;17.20;60.10
50955;DHT22;36966;48.064;-0.792;2023-12-28T14:30:30;17.20;60.00
50955;DHT22;36966;48.064;-0.792;2023-12-28T14:32:50;17.20;59.90
50955;DHT22;36966;48.064;-0.792;2023-12-28T14:35:10;17.20;59.90
50955;DHT22;36966;48.064;-0.792;2023-12-28T14:37:29;17.20;59.80